Time;durP1;ratioP1;P1;durP2;ratioP2;P2;SDS_P1;SDS_P2;PMS_P1;PMS_P2;Temp;Humidity;BMP_temperature;BMP_pressure;BME280_temperature;BME280_humidity;BME280_pressure;Samples;Min_cycle;Max_cycle;Signal;HPM_P1;HPM_P2
2022/05/22 00:01:53;;;;;;;2.13;1.10;;;22.20;54.50;;;;;;4960672;28;88907;-63
2022/05/22 00:04:19;;;;;;;2.20;1.27;;;22.20;55.20;;;;;;4953284;28;90219;-63
2022/05/22 00:06:45;;;;;;;2.40;1.30;;;22.20;54.60;;;;;;4972179;28;87433;-63
2022/05/22 00:09:10;;;;;;;2.45;1.02;;;22.20;54.60;;;;;;4973765;28;87846;-63
2022/05/22 00:11:36;;;;;;;1.55;1.20;;;22.20;54.50;;;;;;4973539;28;88139;-63
2022/05/22 00:14:02;;;;;;;3.97;1.38;;;22.20;54.60;;;;;;4973290;28;88031;-63
2022/05/22 00:16:37;;;;;;;2.65;1.15;;;22.20;54.60;;;;;;4970815;28;86964;-64
2022/05/22 00:19:04;;;;;;;2.63;1.30;;;22.20;54.70;;;;;;4960340;28;86502;-62
2022/05/22 00:21:30;;;;;;;1.88;1.10;;;22.20;54.70;;;;;;4971367;28;87679;-63
2022/05/22 00:23:56;;;;;;;2.10;1.15;;;22.20;54.60;;;;;;4963239;28;88067;-63
2022/05/22 00:26:22;;;;;;;1.63;1.13;;;22.20;54.80;;;;;;4960159;28;88312;-63
2022/05/22 00:28:47;;;;;;;2.17;1.30;;;22.20;54.60;;;;;;4971573;28;87983;-63
2022/05/22 00:31:13;;;;;;;4.40;1.42;;;22.20;54.70;;;;;;4965790;28;90717;-63
2022/05/22 00:33:40;;;;;;;2.60;0.93;;;22.20;54.70;;;;;;4959876;28;87513;-63
2022/05/22 00:36:06;;;;;;;2.95;1.27;;;22.20;54.70;;;;;;4971961;28;88459;-63
2022/05/22 00:38:32;;;;;;;1.90;1.02;;;22.20;54.80;;;;;;4962154;28;87036;-63
2022/05/22 00:40:58;;;;;;;2.33;1.20;;;22.20;54.90;;;;;;4958374;28;88027;-63
2022/05/22 00:43:26;;;;;;;1.65;1.38;;;22.10;54.80;;;;;;4966479;28;87874;-63
2022/05/22 00:45:52;;;;;;;2.70;1.50;;;22.20;54.80;;;;;;4970934;28;87325;-63
2022/05/22 00:48:17;;;;;;;3.45;1.33;;;22.20;54.90;;;;;;4972393;28;87086;-63
2022/05/22 00:50:43;;;;;;;1.83;1.20;;;22.10;54.80;;;;;;4968637;28;88973;-63
2022/05/22 00:53:09;;;;;;;1.95;1.10;;;22.10;54.80;;;;;;4964894;28;88738;-63
2022/05/22 00:55:35;;;;;;;2.70;1.35;;;22.20;54.90;;;;;;4965750;28;87014;-63
2022/05/22 00:58:12;;;;;;;1.70;1.20;;;22.20;54.80;;;;;;4958086;28;88446;-62
2022/05/22 01:00:38;;;;;;;1.33;1.00;;;22.20;55.00;;;;;;4953072;28;88034;-64
2022/05/22 01:03:27;;;;;;;2.55;1.10;;;22.10;54.90;;;;;;4957853;28;87845;-64
2022/05/22 01:05:54;;;;;;;1.97;1.10;;;22.10;54.80;;;;;;4962700;28;87541;-63
2022/05/22 01:08:20;;;;;;;2.13;1.00;;;22.20;54.90;;;;;;4952670;28;89708;-63
2022/05/22 01:10:47;;;;;;;1.58;1.10;;;22.10;54.80;;;;;;4952188;28;87745;-63
2022/05/22 01:13:15;;;;;;;1.73;1.08;;;22.20;55.00;;;;;;4955809;28;87766;-64
2022/05/22 01:15:41;;;;;;;3.13;1.50;;;22.10;54.80;;;;;;4966663;28;88916;-64
2022/05/22 01:18:07;;;;;;;2.35;1.10;;;22.10;54.90;;;;;;4957820;28;87152;-64
2022/05/22 01:20:33;;;;;;;2.10;1.23;;;22.10;55.00;;;;;;4971709;28;88755;-64
2022/05/22 01:22:58;;;;;;;2.13;1.30;;;22.10;55.00;;;;;;4954604;28;88063;-63
2022/05/22 01:25:24;;;;;;;2.65;1.20;;;22.10;55.00;;;;;;4961422;28;86945;-63
2022/05/22 01:27:53;;;;;;;1.38;0.98;;;22.10;55.00;;;;;;4964259;28;89737;-63
2022/05/22 01:30:21;;;;;;;;;;;22.10;55.00;;;;;;4971947;28;88174;-63
2022/05/22 01:32:48;;;;;;;2.33;1.17;;;22.10;55.40;;;;;;4973131;28;87150;-63
2022/05/22 01:35:19;;;;;;;2.50;1.33;;;22.10;55.30;;;;;;4961473;28;87650;-63
2022/05/22 01:37:45;;;;;;;1.67;1.13;;;22.10;55.10;;;;;;4955848;28;87431;-64
2022/05/22 01:40:14;;;;;;;1.70;1.02;;;22.10;55.00;;;;;;4954358;28;88628;-63
2022/05/22 01:42:40;;;;;;;1.17;1.05;;;22.10;55.30;;;;;;4957025;28;88632;-63
2022/05/22 01:45:09;;;;;;;1.33;1.17;;;22.10;55.30;;;;;;4963270;28;87444;-63
2022/05/22 01:47:37;;;;;;;2.67;1.30;;;22.10;55.30;;;;;;4952492;28;88731;-63
2022/05/22 01:50:04;;;;;;;1.55;1.00;;;22.10;55.30;;;;;;4966802;28;88324;-64
2022/05/22 01:52:29;;;;;;;1.48;1.05;;;22.10;55.30;;;;;;4969393;28;91784;-63
2022/05/22 01:54:55;;;;;;;1.48;1.00;;;22.10;55.30;;;;;;4969536;28;87233;-64
2022/05/22 01:57:21;;;;;;;2.03;1.33;;;22.10;55.30;;;;;;4972012;28;86789;-63
2022/05/22 01:59:46;;;;;;;2.15;1.17;;;22.10;55.20;;;;;;4967821;28;88146;-64
2022/05/22 02:02:12;;;;;;;1.92;1.25;;;22.10;55.10;;;;;;4961992;28;88404;-63
2022/05/22 02:04:38;;;;;;;1.33;1.08;;;22.10;55.20;;;;;;4954814;28;89115;-63
2022/05/22 02:09:48;;;;;;;1.52;1.10;;;22.10;55.40;;;;;;4964150;28;87327;-63
2022/05/22 02:12:14;;;;;;;1.77;1.10;;;22.10;55.40;;;;;;4954188;28;87807;-63
2022/05/22 02:14:39;;;;;;;2.10;1.15;;;22.10;55.40;;;;;;4953305;28;88066;-63
2022/05/22 02:17:05;;;;;;;2.08;1.10;;;22.10;55.40;;;;;;4952168;28;86988;-64
2022/05/22 02:19:31;;;;;;;1.38;1.17;;;22.10;55.50;;;;;;4961537;28;87343;-64
2022/05/22 02:21:57;;;;;;;2.50;1.20;;;22.10;55.30;;;;;;4968832;28;87780;-63
2022/05/22 02:24:23;;;;;;;3.22;1.23;;;22.10;55.40;;;;;;4971403;28;87606;-63
2022/05/22 02:26:48;;;;;;;1.98;1.20;;;22.10;55.30;;;;;;4970670;28;87599;-62
2022/05/22 02:29:14;;;;;;;2.40;1.30;;;22.10;55.40;;;;;;4967531;28;89038;-63
2022/05/22 02:31:40;;;;;;;2.33;1.30;;;22.10;55.40;;;;;;4951074;28;88642;-63
2022/05/22 02:34:06;;;;;;;1.48;1.00;;;22.10;55.30;;;;;;4952464;28;86994;-64
2022/05/22 02:36:32;;;;;;;1.30;1.00;;;22.10;55.30;;;;;;4951724;28;87973;-63
2022/05/22 02:38:57;;;;;;;2.13;1.02;;;22.10;55.30;;;;;;4954117;28;87960;-63
2022/05/22 02:41:24;;;;;;;1.60;1.10;;;22.10;55.30;;;;;;4970860;28;87777;-64
2022/05/22 02:43:50;;;;;;;2.03;1.15;;;22.10;55.40;;;;;;4970968;28;87731;-63
2022/05/22 02:46:17;;;;;;;3.08;1.13;;;22.10;55.30;;;;;;4952997;28;86965;-63
2022/05/22 02:48:43;;;;;;;1.73;1.00;;;22.10;55.40;;;;;;4956278;28;87961;-63
2022/05/22 02:51:13;;;;;;;2.80;1.30;;;22.10;55.40;;;;;;4970007;28;87811;-64
2022/05/22 02:53:40;;;;;;;1.52;0.90;;;22.00;55.40;;;;;;4960008;28;88533;-63
2022/05/22 02:56:18;;;;;;;2.20;1.23;;;22.00;55.30;;;;;;4965035;28;87403;-63
2022/05/22 02:58:45;;;;;;;2.13;1.08;;;22.10;55.30;;;;;;4969818;28;87181;-63
2022/05/22 03:01:10;;;;;;;1.58;0.90;;;22.00;55.30;;;;;;4970764;28;87808;-63
2022/05/22 03:03:36;;;;;;;1.48;1.17;;;22.00;55.50;;;;;;4961029;28;87532;-63
2022/05/22 03:08:46;;;;;;;2.28;1.55;;;22.00;55.50;;;;;;4954496;28;87481;-63
2022/05/22 03:11:12;;;;;;;1.63;1.10;;;22.00;56.00;;;;;;4970150;28;86842;-63
2022/05/22 03:13:38;;;;;;;1.17;1.00;;;22.00;55.30;;;;;;4963935;28;88033;-63
2022/05/22 03:16:04;;;;;;;1.25;1.10;;;22.00;55.40;;;;;;4955676;28;88247;-63
2022/05/22 03:18:32;;;;;;;2.03;1.00;;;22.00;55.50;;;;;;4970154;28;88871;-63
2022/05/22 03:20:58;;;;;;;2.63;1.10;;;22.00;55.40;;;;;;4954166;28;88276;-64
2022/05/22 03:23:24;;;;;;;1.80;1.33;;;22.00;55.50;;;;;;4954096;28;87836;-63
2022/05/22 03:25:49;;;;;;;1.40;1.08;;;22.00;56.00;;;;;;4952909;28;89760;-63
2022/05/22 03:28:16;;;;;;;2.95;1.23;;;22.00;55.50;;;;;;4954453;28;87588;-64
2022/05/22 03:30:42;;;;;;;1.90;1.25;;;22.00;55.50;;;;;;4967736;28;87749;-62
2022/05/22 03:33:09;;;;;;;2.33;1.00;;;22.00;55.60;;;;;;4961119;28;87792;-63
2022/05/22 03:35:36;;;;;;;2.15;1.23;;;22.00;55.70;;;;;;4954464;28;87518;-63
2022/05/22 03:38:03;;;;;;;1.67;1.05;;;22.00;55.60;;;;;;4964478;28;88199;-63
2022/05/22 03:40:30;;;;;;;1.55;1.25;;;22.00;56.20;;;;;;4954413;28;87296;-63
2022/05/22 03:43:00;;;;;;;1.33;0.85;;;22.00;55.50;;;;;;4957347;28;88760;-63
2022/05/22 03:45:25;;;;;;;1.08;0.95;;;22.00;55.50;;;;;;4963125;28;89550;-63
2022/05/22 03:47:51;;;;;;;1.75;1.13;;;22.00;55.50;;;;;;4966484;28;89457;-63
2022/05/22 03:50:17;;;;;;;2.13;1.15;;;22.00;55.50;;;;;;4954195;28;87653;-64
2022/05/22 03:52:47;;;;;;;1.23;1.13;;;22.00;55.50;;;;;;4954489;28;88304;-63
2022/05/22 03:55:14;;;;;;;1.70;1.30;;;22.00;55.50;;;;;;4954662;28;88065;-63
2022/05/22 03:57:40;;;;;;;1.13;1.00;;;21.90;55.40;;;;;;4972268;28;88108;-63
2022/05/22 04:00:10;;;;;;;1.50;1.15;;;21.90;55.30;;;;;;4972813;28;87360;-63
2022/05/22 04:02:36;;;;;;;2.42;1.10;;;21.90;55.40;;;;;;4955135;28;88102;-63
2022/05/22 04:05:03;;;;;;;2.20;1.10;;;22.00;55.70;;;;;;4970498;28;86914;-63
2022/05/22 04:07:28;;;;;;;1.35;1.10;;;22.00;55.60;;;;;;4962455;28;90625;-65
2022/05/22 04:09:56;;;;;;;1.02;0.90;;;21.90;55.60;;;;;;4956409;28;88166;-62
2022/05/22 04:12:22;;;;;;;1.45;1.17;;;21.90;55.60;;;;;;4955061;28;87588;-63
2022/05/22 04:14:48;;;;;;;1.10;0.98;;;21.90;55.40;;;;;;4973103;28;87928;-63
2022/05/22 04:17:13;;;;;;;1.30;1.10;;;21.90;55.50;;;;;;4956802;28;87971;-64
2022/05/22 04:19:39;;;;;;;1.15;1.00;;;22.00;55.50;;;;;;4954416;28;88415;-64
2022/05/22 04:22:06;;;;;;;1.10;1.00;;;22.00;55.60;;;;;;4971193;28;86972;-64
2022/05/22 04:27:16;;;;;;;1.20;1.00;;;21.90;55.50;;;;;;4954411;28;87623;-63
2022/05/22 04:29:41;;;;;;;0.90;0.90;;;21.90;55.50;;;;;;4961325;28;87909;-64
2022/05/22 04:32:07;;;;;;;1.60;1.00;;;21.90;55.30;;;;;;4970012;28;88306;-63
2022/05/22 04:34:33;;;;;;;1.08;0.98;;;22.00;55.50;;;;;;4960830;28;88242;-63
2022/05/22 04:36:59;;;;;;;1.85;1.10;;;21.90;55.40;;;;;;4962474;28;87999;-64
2022/05/22 04:39:24;;;;;;;2.05;1.02;;;21.90;55.50;;;;;;4969331;28;88838;-63
2022/05/22 04:41:50;;;;;;;1.95;1.27;;;21.90;55.30;;;;;;4962046;28;87904;-64
2022/05/22 04:44:16;;;;;;;1.77;1.10;;;21.90;55.50;;;;;;4966542;28;87928;-63
2022/05/22 04:46:42;;;;;;;1.02;0.93;;;22.00;55.50;;;;;;4952100;28;87272;-64
2022/05/22 04:49:07;;;;;;;1.30;1.00;;;21.90;55.40;;;;;;4960824;28;87175;-63
2022/05/22 04:51:33;;;;;;;1.33;1.13;;;22.00;55.60;;;;;;4968191;28;88054;-62
2022/05/22 04:53:58;;;;;;;1.30;1.17;;;22.00;55.60;;;;;;4958184;28;87805;-64
2022/05/22 04:56:24;;;;;;;1.38;1.05;;;22.00;55.70;;;;;;4971872;28;89899;-63
2022/05/22 04:58:50;;;;;;;1.67;1.35;;;22.00;55.80;;;;;;4972402;28;88739;-64
2022/05/22 05:01:16;;;;;;;1.40;1.08;;;22.00;55.70;;;;;;4955531;28;87837;-63
2022/05/22 05:03:42;;;;;;;1.65;1.02;;;22.00;55.80;;;;;;4952733;28;88074;-63
2022/05/22 05:06:09;;;;;;;1.25;1.08;;;22.00;55.70;;;;;;4957902;28;87501;-63
2022/05/22 05:08:34;;;;;;;1.70;1.02;;;22.10;55.70;;;;;;4959454;28;88662;-63
2022/05/22 05:11:01;;;;;;;1.55;1.00;;;22.00;55.60;;;;;;4963829;28;87784;-64
2022/05/22 05:13:28;;;;;;;1.13;1.02;;;22.00;55.70;;;;;;4968350;28;86888;-63
2022/05/22 05:16:21;;;;;;;1.52;1.13;;;22.10;55.70;;;;;;4970463;28;91013;-63
2022/05/22 05:18:47;;;;;;;1.70;1.05;;;22.00;55.90;;;;;;4956199;28;87805;-64
2022/05/22 05:21:14;;;;;;;1.95;1.10;;;22.10;56.50;;;;;;4967746;28;87800;-64
2022/05/22 05:23:40;;;;;;;1.02;0.90;;;22.10;56.00;;;;;;4963536;28;89550;-63
2022/05/22 05:26:06;;;;;;;1.15;1.05;;;22.10;56.00;;;;;;4959651;28;91282;-64
2022/05/22 05:28:32;;;;;;;1.38;1.00;;;22.10;56.00;;;;;;4957088;28;87960;-63
2022/05/22 05:30:59;;;;;;;1.20;1.10;;;22.10;56.10;;;;;;4953088;28;87362;-64
2022/05/22 05:33:25;;;;;;;3.50;1.10;;;22.10;55.90;;;;;;4955284;28;87665;-64
2022/05/22 05:35:51;;;;;;;2.85;1.02;;;22.10;55.70;;;;;;4959723;28;88107;-64
2022/05/22 05:38:16;;;;;;;3.17;1.60;;;22.10;55.00;;;;;;4951998;28;87984;-63
2022/05/22 05:40:42;;;;;;;4.47;1.65;;;22.10;54.50;;;;;;4957731;28;87653;-64
2022/05/22 05:43:08;;;;;;;2.97;1.75;;;22.20;54.10;;;;;;4970849;28;87298;-63
2022/05/22 05:45:34;;;;;;;3.35;1.77;;;22.20;53.90;;;;;;4951522;28;88630;-63
2022/05/22 05:48:00;;;;;;;4.93;1.90;;;22.20;54.00;;;;;;4957109;28;87511;-64
2022/05/22 05:50:26;;;;;;;2.92;1.50;;;22.20;54.10;;;;;;4961340;28;88140;-64
2022/05/22 05:52:54;;;;;;;5.32;1.85;;;22.20;54.70;;;;;;4957843;28;87986;-63
2022/05/22 05:55:20;;;;;;;4.90;1.52;;;22.20;54.60;;;;;;4968883;28;88344;-64
2022/05/22 05:57:46;;;;;;;5.03;1.40;;;22.10;54.90;;;;;;4963352;28;87922;-64
2022/05/22 06:00:15;;;;;;;4.32;1.63;;;22.10;54.80;;;;;;4961737;28;87514;-63
2022/05/22 06:02:42;;;;;;;6.07;2.08;;;22.10;54.80;;;;;;4969528;28;88752;-63
2022/05/22 06:05:09;;;;;;;4.10;1.77;;;22.10;54.50;;;;;;4952541;28;88266;-64
2022/05/22 06:07:34;;;;;;;5.85;1.70;;;22.10;54.50;;;;;;4964784;28;90362;-64
2022/05/22 06:10:00;;;;;;;11.13;2.38;;;22.10;54.80;;;;;;4962297;28;88681;-64
2022/05/22 06:12:26;;;;;;;7.90;2.65;;;22.10;55.20;;;;;;4950915;28;87806;-64
2022/05/22 06:14:52;;;;;;;8.85;2.33;;;22.10;55.10;;;;;;4951952;28;87620;-63
2022/05/22 06:17:18;;;;;;;11.10;3.00;;;22.10;55.00;;;;;;4968207;28;87704;-64
2022/05/22 06:19:56;;;;;;;13.18;3.88;;;22.10;55.30;;;;;;4960892;28;87683;-64
2022/05/22 06:22:24;;;;;;;13.52;4.32;;;22.10;55.00;;;;;;4970892;28;86930;-64
2022/05/22 06:24:51;;;;;;;10.18;3.40;;;22.10;55.10;;;;;;4971257;28;87912;-63
2022/05/22 06:27:17;;;;;;;9.20;3.20;;;22.10;55.20;;;;;;4954365;28;87979;-64
2022/05/22 06:29:43;;;;;;;10.52;2.72;;;22.10;55.10;;;;;;4951295;28;88046;-63
2022/05/22 06:32:14;;;;;;;10.40;3.67;;;22.10;55.10;;;;;;4950831;28;87089;-63
2022/05/22 06:34:42;;;;;;;4.78;2.72;;;22.10;55.40;;;;;;4956059;28;89145;-63
2022/05/22 06:37:11;;;;;;;8.87;3.23;;;22.10;55.10;;;;;;4971108;28;87946;-63
2022/05/22 06:39:51;;;;;;;9.07;3.00;;;22.20;55.50;;;;;;4969766;28;86883;-63
2022/05/22 06:42:22;;;;;;;9.75;2.80;;;22.20;55.30;;;;;;4958907;28;87492;-63
2022/05/22 06:44:56;;;;;;;14.20;4.07;;;22.20;55.10;;;;;;4957524;28;88160;-63
2022/05/22 06:47:23;;;;;;;6.90;3.15;;;22.20;55.00;;;;;;4960043;28;87763;-63
2022/05/22 06:49:50;;;;;;;230.68;39.92;;;22.20;55.50;;;;;;4951284;28;87198;-63
2022/05/22 06:52:16;;;;;;;158.50;26.50;;;22.20;54.80;;;;;;4953761;28;86862;-63
2022/05/22 06:54:42;;;;;;;64.57;14.10;;;22.20;54.30;;;;;;4969275;28;87932;-63
2022/05/22 06:57:08;;;;;;;38.53;9.52;;;22.10;53.90;;;;;;4950754;28;89419;-63
2022/05/22 06:59:34;;;;;;;28.25;8.23;;;22.10;53.80;;;;;;4950688;28;88320;-63
2022/05/22 07:02:00;;;;;;;21.90;6.50;;;22.10;53.80;;;;;;4957841;28;87436;-63
2022/05/22 07:04:26;;;;;;;25.88;7.47;;;22.00;53.50;;;;;;4957269;28;88160;-64
2022/05/22 07:06:52;;;;;;;18.75;6.70;;;22.10;53.90;;;;;;4961504;28;88147;-63
2022/05/22 07:09:18;;;;;;;21.67;6.28;;;22.10;53.90;;;;;;4959721;28;87471;-63
2022/05/22 07:11:45;;;;;;;21.63;6.80;;;22.10;54.30;;;;;;4955425;28;87652;-63
2022/05/22 07:14:14;;;;;;;21.15;6.47;;;22.10;54.80;;;;;;4962675;28;87629;-64
2022/05/22 07:16:40;;;;;;;18.47;6.00;;;22.10;55.00;;;;;;4958466;28;87318;-63
2022/05/22 07:19:08;;;;;;;15.10;5.70;;;22.10;55.60;;;;;;4969909;28;88029;-64
2022/05/22 07:21:34;;;;;;;15.43;6.78;;;22.10;55.10;;;;;;4962580;28;89138;-63
2022/05/22 07:23:59;;;;;;;12.18;6.28;;;22.10;55.10;;;;;;4961855;28;88488;-63
2022/05/22 07:26:26;;;;;;;14.35;5.85;;;22.10;55.30;;;;;;4949535;28;90278;-64
2022/05/22 07:28:52;;;;;;;12.77;6.80;;;22.10;55.80;;;;;;4969179;28;87511;-63
2022/05/22 07:31:21;;;;;;;13.35;6.20;;;22.10;55.20;;;;;;4954075;28;88859;-64
2022/05/22 07:33:47;;;;;;;15.52;6.47;;;22.10;55.20;;;;;;4948795;28;89272;-64
2022/05/22 07:36:13;;;;;;;10.48;6.50;;;22.10;55.50;;;;;;4961185;28;88189;-64
2022/05/22 07:38:38;;;;;;;14.70;5.70;;;22.20;55.40;;;;;;4968252;28;88914;-63
2022/05/22 07:41:04;;;;;;;9.27;5.15;;;22.10;55.80;;;;;;4902583;28;90401;-64
2022/05/22 07:43:30;;;;;;;11.20;5.68;;;22.10;55.70;;;;;;4966766;28;88428;-64
2022/05/22 07:45:55;;;;;;;11.07;5.40;;;22.10;55.70;;;;;;4968592;28;87859;-63
2022/05/22 07:48:21;;;;;;;10.98;5.82;;;22.10;55.80;;;;;;4965948;28;89331;-63
2022/05/22 07:50:52;;;;;;;17.35;5.97;;;22.10;55.50;;;;;;4961509;28;88103;-63
2022/05/22 07:53:18;;;;;;;14.32;5.90;;;22.10;55.80;;;;;;4948996;28;88433;-64
2022/05/22 07:55:45;;;;;;;18.13;5.97;;;22.20;55.50;;;;;;4958785;28;88207;-64
2022/05/22 07:58:11;;;;;;;15.15;5.60;;;22.20;55.90;;;;;;4956333;28;88029;-63
2022/05/22 08:00:36;;;;;;;14.45;4.88;;;22.20;56.10;;;;;;4961512;28;87260;-64
2022/05/22 08:03:14;;;;;;;12.10;5.88;;;22.30;56.10;;;;;;4959970;28;88010;-63
2022/05/22 08:05:41;;;;;;;13.38;5.75;;;22.20;55.80;;;;;;4970904;28;87747;-63
2022/05/22 08:08:08;;;;;;;17.45;5.95;;;22.20;55.70;;;;;;4969835;28;87310;-64
2022/05/22 08:10:36;;;;;;;14.95;6.22;;;22.20;55.70;;;;;;4953969;28;87632;-63
2022/05/22 08:13:06;;;;;;;12.27;5.50;;;22.30;55.30;;;;;;4960948;28;88626;-63
2022/05/22 08:15:34;;;;;;;14.70;5.47;;;22.30;55.00;;;;;;4969113;28;88677;-63
2022/05/22 08:18:00;;;;;;;9.60;4.20;;;22.20;55.00;;;;;;4950963;28;88170;-63
2022/05/22 08:20:27;;;;;;;11.63;4.60;;;22.20;54.90;;;;;;4958829;28;88138;-63
2022/05/22 08:23:00;;;;;;;12.38;4.90;;;22.20;54.90;;;;;;4953126;28;88296;-64
2022/05/22 08:25:27;;;;;;;15.50;4.55;;;22.30;55.00;;;;;;4964677;28;87645;-63
2022/05/22 08:27:57;;;;;;;9.82;3.83;;;22.20;55.10;;;;;;4962202;28;87490;-63
2022/05/22 08:30:24;;;;;;;11.52;4.60;;;22.20;55.30;;;;;;4973389;28;87283;-62
2022/05/22 08:32:51;;;;;;;10.13;3.70;;;22.20;55.30;;;;;;4973540;28;88126;-63
2022/05/22 08:35:27;;;;;;;10.25;3.60;;;22.30;55.30;;;;;;4972516;28;87802;-63
2022/05/22 08:37:52;;;;;;;11.77;3.53;;;22.20;55.40;;;;;;4966416;28;88682;-63
2022/05/22 08:40:21;;;;;;;11.70;3.75;;;22.30;55.50;;;;;;4952872;28;88295;-63
2022/05/22 08:43:05;;;;;;;10.98;3.33;;;22.20;55.70;;;;;;4952732;28;88054;-63
2022/05/22 08:45:39;;;;;;;8.07;3.17;;;22.20;55.80;;;;;;4953034;28;87642;-63
2022/05/22 08:48:15;;;;;;;6.68;2.90;;;22.30;55.80;;;;;;4953253;28;88435;-63
2022/05/22 08:50:43;;;;;;;6.53;3.03;;;22.20;55.90;;;;;;4952537;28;87958;-63
2022/05/22 08:53:28;;;;;;;10.07;2.97;;;22.30;56.00;;;;;;4952231;28;88037;-63
2022/05/22 08:58:58;;;;;;;8.93;2.85;;;22.30;56.80;;;;;;4973576;28;87654;-63
2022/05/22 09:01:54;;;;;;;7.22;3.25;;;22.30;56.20;;;;;;4965878;28;87715;-64
2022/05/22 09:04:38;;;;;;;7.45;3.00;;;22.30;56.10;;;;;;4953655;28;90857;-64
2022/05/22 09:07:07;;;;;;;8.13;3.13;;;22.30;56.00;;;;;;4971810;28;88627;-63
2022/05/22 09:09:36;;;;;;;6.85;2.58;;;22.30;56.20;;;;;;4972057;28;87802;-63
2022/05/22 09:12:21;;;;;;;;;;;22.30;56.40;;;;;;4970909;28;90258;-63
2022/05/22 09:15:03;;;;;;;6.88;2.70;;;22.30;56.30;;;;;;4964965;28;87946;-63
2022/05/22 09:17:34;;;;;;;7.35;2.92;;;22.30;56.30;;;;;;4957053;28;88323;-63
2022/05/22 09:20:19;;;;;;;6.85;3.10;;;22.30;56.20;;;;;;4957956;28;86990;-63
2022/05/22 09:23:00;;;;;;;5.18;2.85;;;22.40;56.30;;;;;;4952194;28;87126;-63
2022/05/22 09:25:48;;;;;;;5.50;3.28;;;22.40;56.40;;;;;;4951497;28;88285;-63
2022/05/22 09:28:26;;;;;;;6.35;3.08;;;22.30;56.40;;;;;;4952055;28;87961;-63
2022/05/22 09:31:04;;;;;;;4.53;2.73;;;22.30;56.50;;;;;;4951677;28;87791;-64
2022/05/22 09:33:55;;;;;;;5.68;3.10;;;22.30;56.60;;;;;;4951884;28;87028;-63
2022/05/22 09:36:56;;;;;;;4.40;2.70;;;22.30;56.50;;;;;;4957951;28;87993;-63
2022/05/22 09:39:44;;;;;;;7.18;2.53;;;22.30;56.60;;;;;;4943058;28;88031;-63
2022/05/22 09:42:38;;;;;;;5.43;2.95;;;22.40;56.80;;;;;;4962415;28;87651;-63
2022/05/22 09:45:39;;;;;;;3.92;2.83;;;22.40;56.60;;;;;;4959880;28;87938;-63
2022/05/22 09:48:11;;;;;;;4.15;2.53;;;22.30;56.60;;;;;;4959623;28;90819;-62
2022/05/22 09:50:58;;;;;;;6.00;3.15;;;22.40;56.80;;;;;;4965729;28;87717;-63
2022/05/22 09:53:31;;;;;;;5.07;2.90;;;22.40;56.60;;;;;;4965414;28;87084;-62
2022/05/22 09:56:30;;;;;;;7.20;2.90;;;22.40;56.80;;;;;;4952707;28;87361;-63
2022/05/22 09:58:58;;;;;;;5.17;2.80;;;22.40;56.70;;;;;;4941512;28;88995;-63
2022/05/22 10:01:31;;;;;;;4.10;2.60;;;22.40;56.90;;;;;;4955907;28;88289;-63
2022/05/22 10:04:19;;;;;;;5.68;2.45;;;22.40;56.80;;;;;;4951571;28;87211;-63
2022/05/22 10:06:47;;;;;;;3.75;2.45;;;22.40;56.80;;;;;;4958853;28;87862;-63
2022/05/22 10:09:28;;;;;;;100.85;25.30;;;22.40;56.60;;;;;;4951334;28;87953;-63
2022/05/22 10:12:29;;;;;;;62.50;16.50;;;22.40;56.60;;;;;;4950756;28;88346;-63
2022/05/22 10:15:19;;;;;;;52.63;14.85;;;22.40;56.70;;;;;;4930297;28;88423;-63
2022/05/22 10:18:16;;;;;;;50.75;13.93;;;22.40;57.10;;;;;;4951444;28;86992;-64
2022/05/22 10:20:49;;;;;;;42.30;13.32;;;22.40;57.20;;;;;;4961203;28;87531;-63
2022/05/22 10:23:40;;;;;;;32.25;11.52;;;22.40;56.80;;;;;;4970224;28;87281;-63
2022/05/22 10:26:25;;;;;;;41.70;12.35;;;22.40;57.10;;;;;;4959420;28;89162;-63
2022/05/22 10:29:14;;;;;;;35.65;10.18;;;22.40;56.80;;;;;;4948967;28;87804;-64
2022/05/22 10:32:05;;;;;;;35.40;10.25;;;22.40;56.40;;;;;;4950756;28;87372;-64
2022/05/22 10:34:55;;;;;;;37.78;10.45;;;22.40;56.40;;;;;;4949284;28;91406;-63
2022/05/22 10:37:37;;;;;;;35.72;9.82;;;22.40;56.30;;;;;;4957718;28;87670;-64
2022/05/22 10:40:14;;;;;;;29.60;9.98;;;22.40;56.30;;;;;;4951936;28;86931;-63
2022/05/22 10:42:45;;;;;;;28.08;8.73;;;22.40;56.50;;;;;;4969468;28;88180;-63
2022/05/22 10:45:25;;;;;;;23.45;8.43;;;22.40;56.30;;;;;;4957382;28;90629;-64
2022/05/22 10:47:53;;;;;;;28.67;9.35;;;22.50;56.40;;;;;;4964504;28;88124;-64
2022/05/22 10:50:23;;;;;;;23.42;8.13;;;22.40;56.10;;;;;;4955792;28;87470;-64
2022/05/22 10:52:49;;;;;;;24.85;8.38;;;22.40;56.20;;;;;;4952045;28;88555;-63
2022/05/22 10:55:30;;;;;;;23.95;7.90;;;22.40;56.30;;;;;;4970311;28;88222;-64
2022/05/22 10:57:58;;;;;;;25.55;8.23;;;22.40;56.00;;;;;;4963964;28;87997;-64
2022/05/22 11:00:25;;;;;;;32.08;8.40;;;22.40;56.10;;;;;;4956711;28;88142;-64
2022/05/22 11:02:50;;;;;;;20.48;6.35;;;22.40;56.30;;;;;;4957752;28;88059;-64
2022/05/22 11:05:25;;;;;;;26.67;6.45;;;22.40;55.10;;;;;;4954124;28;88817;-65
2022/05/22 11:07:53;;;;;;;23.15;6.03;;;22.40;54.40;;;;;;4949096;28;87736;-64
2022/05/22 11:10:28;;;;;;;18.73;5.43;;;22.40;54.20;;;;;;4957316;28;87069;-64
2022/05/22 11:13:05;;;;;;;21.23;5.32;;;22.40;54.30;;;;;;4963615;28;90416;-65
2022/05/22 11:15:37;;;;;;;14.52;5.82;;;22.40;54.70;;;;;;4951462;28;87829;-64
2022/05/22 11:18:11;;;;;;;18.95;5.20;;;22.40;54.50;;;;;;4958343;28;89214;-64
2022/05/22 11:21:07;;;;;;;14.80;4.90;;;22.40;53.90;;;;;;4960536;28;87152;-64
2022/05/22 11:23:35;;;;;;;16.33;5.00;;;22.40;53.40;;;;;;4973079;28;91506;-64
2022/05/22 11:26:25;;;;;;;18.37;5.07;;;22.40;53.20;;;;;;4953072;28;87461;-65
2022/05/22 11:29:24;;;;;;;16.23;5.95;;;22.50;53.60;;;;;;4956843;28;87236;-64
2022/05/22 11:32:38;;;;;;;13.45;4.75;;;22.40;54.20;;;;;;4967676;28;87317;-64
2022/05/22 11:35:38;;;;;;;11.48;4.18;;;22.40;54.00;;;;;;4945678;28;90144;-65
2022/05/22 11:38:49;;;;;;;14.82;4.72;;;22.40;53.00;;;;;;4953924;28;88595;-64
2022/05/22 11:41:37;;;;;;;17.98;5.15;;;22.40;54.00;;;;;;4961697;28;87695;-64
2022/05/22 11:44:06;;;;;;;16.40;4.60;;;22.40;53.90;;;;;;4968894;28;87454;-64
2022/05/22 11:47:02;;;;;;;15.07;4.22;;;22.40;53.60;;;;;;4969025;28;88701;-65
2022/05/22 11:49:46;;;;;;;12.70;4.10;;;22.40;52.80;;;;;;4959335;28;88967;-64
2022/05/22 11:55:33;;;;;;;11.07;3.60;;;22.40;52.40;;;;;;4972253;28;88128;-65
2022/05/22 11:58:01;;;;;;;14.43;3.42;;;22.40;52.70;;;;;;4954987;28;88194;-64
2022/05/22 12:00:53;;;;;;;12.90;3.33;;;22.40;52.70;;;;;;4959913;28;88129;-65
2022/05/22 12:03:34;;;;;;;15.45;3.90;;;22.40;51.50;;;;;;4961393;28;87978;-64
2022/05/22 12:06:29;;;;;;;11.05;3.95;;;22.40;52.00;;;;;;4955791;28;87412;-64
2022/05/22 12:09:33;;;;;;;15.35;4.57;;;22.40;51.90;;;;;;4964921;28;88215;-63
2022/05/22 12:12:35;;;;;;;12.73;3.83;;;22.40;52.20;;;;;;4964924;28;88652;-63
2022/05/22 12:15:33;;;;;;;14.77;4.65;;;22.40;52.10;;;;;;4964395;28;88915;-63
2022/05/22 12:18:01;;;;;;;12.25;3.83;;;22.40;52.10;;;;;;4965302;28;87755;-63
2022/05/22 12:20:45;;;;;;;14.55;3.72;;;22.40;52.30;;;;;;4955031;28;88973;-64
2022/05/22 12:23:19;;;;;;;15.90;4.15;;;22.40;52.20;;;;;;4958084;28;88284;-63
2022/05/22 12:26:01;;;;;;;11.48;3.72;;;22.40;52.40;;;;;;4955472;28;87584;-63
2022/05/22 12:29:00;;;;;;;9.52;3.50;;;22.40;52.60;;;;;;4957760;28;87928;-63
2022/05/22 12:31:46;;;;;;;10.65;4.25;;;22.40;52.60;;;;;;4953180;28;87597;-63
2022/05/22 12:34:22;;;;;;;10.60;3.40;;;22.40;52.80;;;;;;4955892;28;87653;-64
2022/05/22 12:36:50;;;;;;;12.75;4.18;;;22.40;52.90;;;;;;4953292;28;86978;-63
2022/05/22 12:39:18;;;;;;;9.50;3.28;;;22.40;53.00;;;;;;4953403;28;87367;-63
2022/05/22 12:41:43;;;;;;;11.10;3.72;;;22.40;53.10;;;;;;4952708;28;90042;-63
2022/05/22 12:44:09;;;;;;;17.05;4.35;;;22.40;53.10;;;;;;4951728;28;88748;-64
2022/05/22 12:46:37;;;;;;;11.75;4.28;;;22.40;53.00;;;;;;4953273;28;88125;-63
2022/05/22 12:49:19;;;;;;;7.43;3.50;;;22.40;53.00;;;;;;4952666;28;87910;-63
2022/05/22 12:52:06;;;;;;;11.73;3.75;;;22.40;53.10;;;;;;4950648;28;91163;-63
2022/05/22 12:54:35;;;;;;;10.52;3.15;;;22.40;53.10;;;;;;4953641;28;88133;-63
2022/05/22 12:57:27;;;;;;;13.13;4.10;;;22.40;53.00;;;;;;4972678;28;87265;-64
2022/05/22 12:59:56;;;;;;;9.82;3.70;;;22.40;53.30;;;;;;4956717;28;87404;-63
2022/05/22 13:02:41;;;;;;;12.88;3.40;;;22.40;53.20;;;;;;4953375;28;89458;-64
2022/05/22 13:05:25;;;;;;;10.60;3.42;;;22.40;53.00;;;;;;4961715;28;87944;-63
2022/05/22 13:07:50;;;;;;;11.55;3.70;;;22.40;53.30;;;;;;4972060;28;87770;-63
2022/05/22 13:10:45;;;;;;;11.40;3.40;;;22.40;53.30;;;;;;4972555;28;87842;-63
2022/05/22 13:13:20;;;;;;;11.85;3.88;;;22.40;53.30;;;;;;4957661;28;88119;-63
2022/05/22 13:16:07;;;;;;;8.70;3.17;;;22.40;53.20;;;;;;4962205;28;88032;-63
2022/05/22 13:18:46;;;;;;;10.40;3.42;;;22.40;53.50;;;;;;4964105;28;87334;-63
2022/05/22 13:21:39;;;;;;;7.22;3.20;;;22.40;53.30;;;;;;4966958;28;87071;-63